sensor_id;sensor_type;location;lat;lon;timestamp;temperature;humidity
7844;DHT22;3967;48.702;9.326;2023-04-24T00:01:05;13.20;96.70
7844;DHT22;3967;48.702;9.326;2023-04-24T00:03:34;13.10;96.70
7844;DHT22;3967;48.702;9.326;2023-04-24T00:06:01;13.00;96.60
7844;DHT22;3967;48.702;9.326;2023-04-24T00:08:29;13.10;96.90
7844;DHT22;3967;48.702;9.326;2023-04-24T00:10:56;13.10;97.00
7844;DHT22;3967;48.702;9.326;2023-04-24T00:13:23;13.20;97.30
7844;DHT22;3967;48.702;9.326;2023-04-24T00:15:49;13.20;96.90
7844;DHT22;3967;48.702;9.326;2023-04-24T00:18:16;13.10;96.50
7844;DHT22;3967;48.702;9.326;2023-04-24T00:20:43;13.00;96.50
7844;DHT22;3967;48.702;9.326;2023-04-24T00:23:10;13.00;96.50
7844;DHT22;3967;48.702;9.326;2023-04-24T00:25:37;13.00;96.50
7844;DHT22;3967;48.702;9.326;2023-04-24T00:28:03;13.00;96.30
7844;DHT22;3967;48.702;9.326;2023-04-24T00:30:30;13.10;96.40
7844;DHT22;3967;48.702;9.326;2023-04-24T00:32:57;13.10;96.60
7844;DHT22;3967;48.702;9.326;2023-04-24T00:35:24;13.10;96.80
7844;DHT22;3967;48.702;9.326;2023-04-24T00:37:51;13.20;96.60
7844;DHT22;3967;48.702;9.326;2023-04-24T00:40:18;13.10;96.90
7844;DHT22;3967;48.702;9.326;2023-04-24T00:42:44;13.20;96.80
7844;DHT22;3967;48.702;9.326;2023-04-24T00:45:12;13.10;96.90
7844;DHT22;3967;48.702;9.326;2023-04-24T00:47:39;13.00;96.50
7844;DHT22;3967;48.702;9.326;2023-04-24T00:50:07;12.90;97.00
7844;DHT22;3967;48.702;9.326;2023-04-24T00:52:34;13.00;96.80
7844;DHT22;3967;48.702;9.326;2023-04-24T00:55:01;13.00;96.90
7844;DHT22;3967;48.702;9.326;2023-04-24T00:57:28;13.10;96.60
7844;DHT22;3967;48.702;9.326;2023-04-24T00:59:54;13.00;96.70
7844;DHT22;3967;48.702;9.326;2023-04-24T01:02:22;13.10;96.80
7844;DHT22;3967;48.702;9.326;2023-04-24T01:04:50;13.10;96.50
7844;DHT22;3967;48.702;9.326;2023-04-24T01:07:20;13.10;96.60
7844;DHT22;3967;48.702;9.326;2023-04-24T01:09:48;13.00;96.50
7844;DHT22;3967;48.702;9.326;2023-04-24T01:12:17;13.00;96.60
7844;DHT22;3967;48.702;9.326;2023-04-24T01:14:44;12.90;96.10
7844;DHT22;3967;48.702;9.326;2023-04-24T01:17:11;12.90;96.40
7844;DHT22;3967;48.702;9.326;2023-04-24T01:19:38;12.90;96.90
7844;DHT22;3967;48.702;9.326;2023-04-24T01:22:14;12.90;96.90
7844;DHT22;3967;48.702;9.326;2023-04-24T01:24:41;12.90;96.80
7844;DHT22;3967;48.702;9.326;2023-04-24T01:27:10;12.90;96.70
7844;DHT22;3967;48.702;9.326;2023-04-24T01:29:37;13.00;96.60
7844;DHT22;3967;48.702;9.326;2023-04-24T01:32:04;13.10;96.50
7844;DHT22;3967;48.702;9.326;2023-04-24T01:34:32;13.10;96.30
7844;DHT22;3967;48.702;9.326;2023-04-24T01:36:59;13.10;96.40
7844;DHT22;3967;48.702;9.326;2023-04-24T01:39:26;13.00;96.50
7844;DHT22;3967;48.702;9.326;2023-04-24T01:41:55;13.00;96.20
7844;DHT22;3967;48.702;9.326;2023-04-24T01:44:22;12.90;96.30
7844;DHT22;3967;48.702;9.326;2023-04-24T01:46:49;12.80;96.30
7844;DHT22;3967;48.702;9.326;2023-04-24T01:49:17;12.90;96.40
7844;DHT22;3967;48.702;9.326;2023-04-24T01:51:43;13.00;96.20
7844;DHT22;3967;48.702;9.326;2023-04-24T01:54:11;13.00;96.30
7844;DHT22;3967;48.702;9.326;2023-04-24T01:56:40;12.90;96.20
7844;DHT22;3967;48.702;9.326;2023-04-24T01:59:07;13.00;96.40
7844;DHT22;3967;48.702;9.326;2023-04-24T02:01:36;13.00;96.30
7844;DHT22;3967;48.702;9.326;2023-04-24T02:04:03;12.90;96.20
7844;DHT22;3967;48.702;9.326;2023-04-24T02:06:30;12.90;95.90
7844;DHT22;3967;48.702;9.326;2023-04-24T02:08:58;12.90;96.00
7844;DHT22;3967;48.702;9.326;2023-04-24T02:11:25;12.80;95.80
7844;DHT22;3967;48.702;9.326;2023-04-24T02:13:53;12.90;96.70
7844;DHT22;3967;48.702;9.326;2023-04-24T02:16:21;12.80;96.90
7844;DHT22;3967;48.702;9.326;2023-04-24T02:18:47;12.80;97.30
7844;DHT22;3967;48.702;9.326;2023-04-24T02:21:14;12.70;97.50
7844;DHT22;3967;48.702;9.326;2023-04-24T02:23:41;12.80;98.00
7844;DHT22;3967;48.702;9.326;2023-04-24T02:26:08;12.80;98.40
7844;DHT22;3967;48.702;9.326;2023-04-24T02:28:34;12.70;98.40
7844;DHT22;3967;48.702;9.326;2023-04-24T02:31:01;12.70;98.30
7844;DHT22;3967;48.702;9.326;2023-04-24T02:33:28;12.60;98.40
7844;DHT22;3967;48.702;9.326;2023-04-24T02:35:55;12.60;99.00
7844;DHT22;3967;48.702;9.326;2023-04-24T02:38:21;12.60;99.00
7844;DHT22;3967;48.702;9.326;2023-04-24T02:40:48;12.70;99.10
7844;DHT22;3967;48.702;9.326;2023-04-24T02:43:15;12.70;99.00
7844;DHT22;3967;48.702;9.326;2023-04-24T02:45:42;12.70;98.80
7844;DHT22;3967;48.702;9.326;2023-04-24T02:48:08;12.60;98.80
7844;DHT22;3967;48.702;9.326;2023-04-24T02:50:35;12.60;99.20
7844;DHT22;3967;48.702;9.326;2023-04-24T02:53:02;12.50;99.20
7844;DHT22;3967;48.702;9.326;2023-04-24T02:55:28;12.60;99.20
7844;DHT22;3967;48.702;9.326;2023-04-24T02:57:55;12.50;99.30
7844;DHT22;3967;48.702;9.326;2023-04-24T03:00:22;12.30;99.30
7844;DHT22;3967;48.702;9.326;2023-04-24T03:02:49;12.30;99.90
7844;DHT22;3967;48.702;9.326;2023-04-24T03:05:16;12.40;99.90
7844;DHT22;3967;48.702;9.326;2023-04-24T03:07:43;12.50;99.50
7844;DHT22;3967;48.702;9.326;2023-04-24T03:10:10;12.50;99.20
7844;DHT22;3967;48.702;9.326;2023-04-24T03:12:36;12.50;99.60
7844;DHT22;3967;48.702;9.326;2023-04-24T03:15:03;12.40;99.60
7844;DHT22;3967;48.702;9.326;2023-04-24T03:17:30;12.50;99.90
7844;DHT22;3967;48.702;9.326;2023-04-24T03:19:57;12.60;99.60
7844;DHT22;3967;48.702;9.326;2023-04-24T03:22:24;12.50;99.90
7844;DHT22;3967;48.702;9.326;2023-04-24T03:24:50;12.40;99.90
7844;DHT22;3967;48.702;9.326;2023-04-24T03:27:17;12.40;99.90
7844;DHT22;3967;48.702;9.326;2023-04-24T03:29:44;12.40;99.90
7844;DHT22;3967;48.702;9.326;2023-04-24T03:32:10;12.30;99.90
7844;DHT22;3967;48.702;9.326;2023-04-24T03:34:37;12.30;99.90
7844;DHT22;3967;48.702;9.326;2023-04-24T03:37:04;12.30;99.90
7844;DHT22;3967;48.702;9.326;2023-04-24T03:39:30;12.30;99.90
7844;DHT22;3967;48.702;9.326;2023-04-24T03:41:57;12.10;99.90
7844;DHT22;3967;48.702;9.326;2023-04-24T03:44:24;12.10;99.90
7844;DHT22;3967;48.702;9.326;2023-04-24T03:46:50;12.00;99.90
7844;DHT22;3967;48.702;9.326;2023-04-24T03:49:17;12.00;99.90
7844;DHT22;3967;48.702;9.326;2023-04-24T03:51:43;11.90;99.90
7844;DHT22;3967;48.702;9.326;2023-04-24T03:54:10;11.70;99.90
7844;DHT22;3967;48.702;9.326;2023-04-24T03:56:37;11.70;99.90
7844;DHT22;3967;48.702;9.326;2023-04-24T03:59:04;11.80;99.90
7844;DHT22;3967;48.702;9.326;2023-04-24T04:01:30;11.80;99.90
7844;DHT22;3967;48.702;9.326;2023-04-24T04:03:57;11.90;99.90
7844;DHT22;3967;48.702;9.326;2023-04-24T04:06:24;11.80;99.90
7844;DHT22;3967;48.702;9.326;2023-04-24T04:08:51;11.60;99.90
7844;DHT22;3967;48.702;9.326;2023-04-24T04:11:17;11.70;99.90
7844;DHT22;3967;48.702;9.326;2023-04-24T04:13:44;11.70;99.90
7844;DHT22;3967;48.702;9.326;2023-04-24T04:16:12;11.60;99.90
7844;DHT22;3967;48.702;9.326;2023-04-24T04:18:39;11.60;99.90
7844;DHT22;3967;48.702;9.326;2023-04-24T04:21:06;11.70;99.90
7844;DHT22;3967;48.702;9.326;2023-04-24T04:23:32;11.50;99.90
7844;DHT22;3967;48.702;9.326;2023-04-24T04:25:59;11.50;99.90
7844;DHT22;3967;48.702;9.326;2023-04-24T04:28:26;11.50;99.90
7844;DHT22;3967;48.702;9.326;2023-04-24T04:30:53;11.50;99.90
7844;DHT22;3967;48.702;9.326;2023-04-24T04:33:24;11.60;99.90
7844;DHT22;3967;48.702;9.326;2023-04-24T04:35:51;11.80;99.90
7844;DHT22;3967;48.702;9.326;2023-04-24T04:38:19;11.80;99.90
7844;DHT22;3967;48.702;9.326;2023-04-24T04:40:46;11.90;99.90
7844;DHT22;3967;48.702;9.326;2023-04-24T04:43:13;11.80;99.90
7844;DHT22;3967;48.702;9.326;2023-04-24T04:45:41;11.80;99.90
7844;DHT22;3967;48.702;9.326;2023-04-24T04:48:10;11.90;99.90
7844;DHT22;3967;48.702;9.326;2023-04-24T04:50:39;11.80;99.90
7844;DHT22;3967;48.702;9.326;2023-04-24T04:53:06;11.10;99.90
7844;DHT22;3967;48.702;9.326;2023-04-24T04:55:33;10.70;99.90
7844;DHT22;3967;48.702;9.326;2023-04-24T04:57:59;10.50;99.90
7844;DHT22;3967;48.702;9.326;2023-04-24T05:00:26;10.60;99.90
7844;DHT22;3967;48.702;9.326;2023-04-24T05:02:55;10.50;99.90
7844;DHT22;3967;48.702;9.326;2023-04-24T05:05:38;10.70;99.90
7844;DHT22;3967;48.702;9.326;2023-04-24T05:08:08;10.70;99.90
7844;DHT22;3967;48.702;9.326;2023-04-24T05:10:51;10.80;99.90
7844;DHT22;3967;48.702;9.326;2023-04-24T05:13:18;10.80;99.90
7844;DHT22;3967;48.702;9.326;2023-04-24T05:16:01;11.10;99.90
7844;DHT22;3967;48.702;9.326;2023-04-24T05:18:28;11.20;99.90
7844;DHT22;3967;48.702;9.326;2023-04-24T05:20:55;11.20;99.90
7844;DHT22;3967;48.702;9.326;2023-04-24T05:23:22;11.40;99.90
7844;DHT22;3967;48.702;9.326;2023-04-24T05:25:49;11.30;99.90
7844;DHT22;3967;48.702;9.326;2023-04-24T05:28:15;11.40;99.90
7844;DHT22;3967;48.702;9.326;2023-04-24T05:30:42;11.40;99.90
7844;DHT22;3967;48.702;9.326;2023-04-24T05:33:09;11.40;99.90
7844;DHT22;3967;48.702;9.326;2023-04-24T05:35:36;11.40;99.90
7844;DHT22;3967;48.702;9.326;2023-04-24T05:38:03;11.40;99.90
7844;DHT22;3967;48.702;9.326;2023-04-24T05:40:30;11.40;99.90
7844;DHT22;3967;48.702;9.326;2023-04-24T05:42:56;11.50;99.90
7844;DHT22;3967;48.702;9.326;2023-04-24T05:45:23;11.40;99.90
7844;DHT22;3967;48.702;9.326;2023-04-24T05:47:50;11.30;99.90
7844;DHT22;3967;48.702;9.326;2023-04-24T05:50:18;11.30;99.90
7844;DHT22;3967;48.702;9.326;2023-04-24T05:52:45;11.30;99.90
7844;DHT22;3967;48.702;9.326;2023-04-24T05:55:12;11.30;99.90
7844;DHT22;3967;48.702;9.326;2023-04-24T05:57:39;11.30;99.90
7844;DHT22;3967;48.702;9.326;2023-04-24T06:00:07;11.40;99.90
7844;DHT22;3967;48.702;9.326;2023-04-24T06:02:34;11.40;99.90
7844;DHT22;3967;48.702;9.326;2023-04-24T06:05:01;11.40;99.90
7844;DHT22;3967;48.702;9.326;2023-04-24T06:07:28;11.40;99.90
7844;DHT22;3967;48.702;9.326;2023-04-24T06:09:55;11.40;99.90
7844;DHT22;3967;48.702;9.326;2023-04-24T06:12:23;11.30;99.90
7844;DHT22;3967;48.702;9.326;2023-04-24T06:14:50;11.30;99.90
7844;DHT22;3967;48.702;9.326;2023-04-24T06:17:16;11.40;99.90
7844;DHT22;3967;48.702;9.326;2023-04-24T06:19:43;11.50;99.90
7844;DHT22;3967;48.702;9.326;2023-04-24T06:22:10;11.50;99.90
7844;DHT22;3967;48.702;9.326;2023-04-24T06:24:37;11.60;99.90
7844;DHT22;3967;48.702;9.326;2023-04-24T06:27:04;11.70;99.90
7844;DHT22;3967;48.702;9.326;2023-04-24T06:29:32;11.60;99.90
7844;DHT22;3967;48.702;9.326;2023-04-24T06:31:59;11.80;99.90
7844;DHT22;3967;48.702;9.326;2023-04-24T06:34:26;12.00;99.90
7844;DHT22;3967;48.702;9.326;2023-04-24T06:36:54;12.40;99.90
7844;DHT22;3967;48.702;9.326;2023-04-24T06:39:21;12.60;99.90
7844;DHT22;3967;48.702;9.326;2023-04-24T06:41:48;12.90;99.90
7844;DHT22;3967;48.702;9.326;2023-04-24T06:44:14;13.30;99.90
7844;DHT22;3967;48.702;9.326;2023-04-24T06:46:41;13.60;99.10
7844;DHT22;3967;48.702;9.326;2023-04-24T06:49:08;13.70;98.80
7844;DHT22;3967;48.702;9.326;2023-04-24T06:51:35;13.90;96.70
7844;DHT22;3967;48.702;9.326;2023-04-24T06:54:01;14.00;96.10
7844;DHT22;3967;48.702;9.326;2023-04-24T06:56:28;14.30;96.90
7844;DHT22;3967;48.702;9.326;2023-04-24T06:58:56;14.50;95.70
7844;DHT22;3967;48.702;9.326;2023-04-24T07:01:22;14.30;96.80
7844;DHT22;3967;48.702;9.326;2023-04-24T07:03:49;14.50;96.60
7844;DHT22;3967;48.702;9.326;2023-04-24T07:06:16;14.80;96.70
7844;DHT22;3967;48.702;9.326;2023-04-24T07:08:45;14.60;95.20
7844;DHT22;3967;48.702;9.326;2023-04-24T07:11:13;15.00;96.60
7844;DHT22;3967;48.702;9.326;2023-04-24T07:13:39;14.90;96.00
7844;DHT22;3967;48.702;9.326;2023-04-24T07:16:08;14.90;97.10
7844;DHT22;3967;48.702;9.326;2023-04-24T07:18:36;14.20;96.60
7844;DHT22;3967;48.702;9.326;2023-04-24T07:21:03;13.80;96.80
7844;DHT22;3967;48.702;9.326;2023-04-24T07:23:30;13.90;96.60
7844;DHT22;3967;48.702;9.326;2023-04-24T07:25:57;13.70;96.10
7844;DHT22;3967;48.702;9.326;2023-04-24T07:28:24;13.90;96.30
7844;DHT22;3967;48.702;9.326;2023-04-24T07:30:51;13.90;96.90
7844;DHT22;3967;48.702;9.326;2023-04-24T07:33:20;13.90;98.00
7844;DHT22;3967;48.702;9.326;2023-04-24T07:35:47;13.80;98.50
7844;DHT22;3967;48.702;9.326;2023-04-24T07:38:14;13.70;99.40
7844;DHT22;3967;48.702;9.326;2023-04-24T07:40:41;13.00;98.90
7844;DHT22;3967;48.702;9.326;2023-04-24T07:43:08;12.20;97.80
7844;DHT22;3967;48.702;9.326;2023-04-24T07:45:35;11.80;99.30
7844;DHT22;3967;48.702;9.326;2023-04-24T07:48:04;11.60;99.90
7844;DHT22;3967;48.702;9.326;2023-04-24T07:50:31;11.70;99.90
7844;DHT22;3967;48.702;9.326;2023-04-24T07:52:58;11.80;99.90
7844;DHT22;3967;48.702;9.326;2023-04-24T07:55:24;12.00;99.90
7844;DHT22;3967;48.702;9.326;2023-04-24T07:57:54;12.50;99.90
7844;DHT22;3967;48.702;9.326;2023-04-24T08:00:20;13.20;99.90
7844;DHT22;3967;48.702;9.326;2023-04-24T08:02:47;13.30;99.20
7844;DHT22;3967;48.702;9.326;2023-04-24T08:05:14;13.70;99.90
7844;DHT22;3967;48.702;9.326;2023-04-24T08:07:41;14.30;99.90
7844;DHT22;3967;48.702;9.326;2023-04-24T08:10:12;14.40;96.90
7844;DHT22;3967;48.702;9.326;2023-04-24T08:12:40;14.30;94.50
7844;DHT22;3967;48.702;9.326;2023-04-24T08:15:07;14.10;94.80
7844;DHT22;3967;48.702;9.326;2023-04-24T08:17:35;13.70;93.90
7844;DHT22;3967;48.702;9.326;2023-04-24T08:20:03;13.50;93.90
7844;DHT22;3967;48.702;9.326;2023-04-24T08:22:31;13.50;94.90
7844;DHT22;3967;48.702;9.326;2023-04-24T08:25:00;13.70;93.60
7844;DHT22;3967;48.702;9.326;2023-04-24T08:27:27;13.90;91.90
7844;DHT22;3967;48.702;9.326;2023-04-24T08:29:54;13.90;91.20
7844;DHT22;3967;48.702;9.326;2023-04-24T08:32:21;13.60;91.40
7844;DHT22;3967;48.702;9.326;2023-04-24T08:34:48;13.40;90.40
7844;DHT22;3967;48.702;9.326;2023-04-24T08:37:15;13.30;90.90
7844;DHT22;3967;48.702;9.326;2023-04-24T08:39:42;13.30;90.80
7844;DHT22;3967;48.702;9.326;2023-04-24T08:42:11;13.10;91.00
7844;DHT22;3967;48.702;9.326;2023-04-24T08:44:39;12.90;91.10
7844;DHT22;3967;48.702;9.326;2023-04-24T08:47:07;13.00;91.10
7844;DHT22;3967;48.702;9.326;2023-04-24T08:49:36;12.80;90.40
7844;DHT22;3967;48.702;9.326;2023-04-24T08:52:03;12.80;89.20
7844;DHT22;3967;48.702;9.326;2023-04-24T08:54:32;13.00;89.60
7844;DHT22;3967;48.702;9.326;2023-04-24T08:57:01;13.10;88.00
7844;DHT22;3967;48.702;9.326;2023-04-24T08:59:32;13.40;86.80
7844;DHT22;3967;48.702;9.326;2023-04-24T09:02:00;13.50;86.50
7844;DHT22;3967;48.702;9.326;2023-04-24T09:04:29;13.80;86.80
7844;DHT22;3967;48.702;9.326;2023-04-24T09:06:58;14.10;86.00
7844;DHT22;3967;48.702;9.326;2023-04-24T09:09:25;14.20;84.30
7844;DHT22;3967;48.702;9.326;2023-04-24T09:11:52;14.30;85.30
7844;DHT22;3967;48.702;9.326;2023-04-24T09:14:22;14.10;82.50
7844;DHT22;3967;48.702;9.326;2023-04-24T09:16:50;13.80;81.80
7844;DHT22;3967;48.702;9.326;2023-04-24T09:19:17;13.70;80.90
7844;DHT22;3967;48.702;9.326;2023-04-24T09:21:46;13.80;83.10
7844;DHT22;3967;48.702;9.326;2023-04-24T09:24:20;14.00;83.30
7844;DHT22;3967;48.702;9.326;2023-04-24T09:26:55;14.00;80.70
7844;DHT22;3967;48.702;9.326;2023-04-24T09:29:24;13.90;80.10
7844;DHT22;3967;48.702;9.326;2023-04-24T09:31:51;13.80;80.10
7844;DHT22;3967;48.702;9.326;2023-04-24T09:34:26;13.70;78.60
7844;DHT22;3967;48.702;9.326;2023-04-24T09:36:54;13.70;78.80
7844;DHT22;3967;48.702;9.326;2023-04-24T09:39:20;13.70;78.80
7844;DHT22;3967;48.702;9.326;2023-04-24T09:44:17;14.10;75.70
7844;DHT22;3967;48.702;9.326;2023-04-24T09:46:50;14.70;76.40
7844;DHT22;3967;48.702;9.326;2023-04-24T09:49:22;14.80;72.50
7844;DHT22;3967;48.702;9.326;2023-04-24T09:51:50;14.70;70.90
7844;DHT22;3967;48.702;9.326;2023-04-24T09:54:19;14.80;67.50
7844;DHT22;3967;48.702;9.326;2023-04-24T09:56:49;14.80;66.60
7844;DHT22;3967;48.702;9.326;2023-04-24T09:59:18;14.90;67.90
7844;DHT22;3967;48.702;9.326;2023-04-24T10:01:45;15.20;68.00
7844;DHT22;3967;48.702;9.326;2023-04-24T10:06:47;15.20;66.10
7844;DHT22;3967;48.702;9.326;2023-04-24T10:09:19;15.40;67.10
7844;DHT22;3967;48.702;9.326;2023-04-24T10:11:48;15.40;65.50
7844;DHT22;3967;48.702;9.326;2023-04-24T10:14:17;15.10;63.60
7844;DHT22;3967;48.702;9.326;2023-04-24T10:16:45;14.80;62.90
7844;DHT22;3967;48.702;9.326;2023-04-24T10:19:14;14.80;63.80
7844;DHT22;3967;48.702;9.326;2023-04-24T10:21:42;14.70;65.70
7844;DHT22;3967;48.702;9.326;2023-04-24T10:24:13;14.40;65.10
7844;DHT22;3967;48.702;9.326;2023-04-24T10:26:41;14.20;67.30
7844;DHT22;3967;48.702;9.326;2023-04-24T10:29:10;14.40;68.20
7844;DHT22;3967;48.702;9.326;2023-04-24T10:31:39;14.70;67.90
7844;DHT22;3967;48.702;9.326;2023-04-24T10:34:07;14.90;65.60
7844;DHT22;3967;48.702;9.326;2023-04-24T10:36:36;15.10;66.00
7844;DHT22;3967;48.702;9.326;2023-04-24T10:39:09;15.10;65.40
7844;DHT22;3967;48.702;9.326;2023-04-24T10:41:38;14.80;63.70
7844;DHT22;3967;48.702;9.326;2023-04-24T10:44:10;15.10;64.80
7844;DHT22;3967;48.702;9.326;2023-04-24T10:46:38;15.60;65.30
7844;DHT22;3967;48.702;9.326;2023-04-24T10:49:08;15.50;65.00
7844;DHT22;3967;48.702;9.326;2023-04-24T10:51:53;15.40;62.80
7844;DHT22;3967;48.702;9.326;2023-04-24T10:56:53;15.10;62.50
7844;DHT22;3967;48.702;9.326;2023-04-24T10:59:39;14.90;64.30
7844;DHT22;3967;48.702;9.326;2023-04-24T11:02:08;14.80;65.40
7844;DHT22;3967;48.702;9.326;2023-04-24T11:04:35;14.80;65.70
7844;DHT22;3967;48.702;9.326;2023-04-24T11:07:05;14.80;64.50
7844;DHT22;3967;48.702;9.326;2023-04-24T11:09:32;14.80;64.70
7844;DHT22;3967;48.702;9.326;2023-04-24T11:12:04;14.80;65.90
7844;DHT22;3967;48.702;9.326;2023-04-24T11:17:38;14.40;66.50
7844;DHT22;3967;48.702;9.326;2023-04-24T11:20:10;14.40;67.20
7844;DHT22;3967;48.702;9.326;2023-04-24T11:22:54;14.40;66.90
7844;DHT22;3967;48.702;9.326;2023-04-24T11:25:22;14.10;67.60
7844;DHT22;3967;48.702;9.326;2023-04-24T11:27:49;14.20;68.70
7844;DHT22;3967;48.702;9.326;2023-04-24T11:30:20;14.00;68.50
7844;DHT22;3967;48.702;9.326;2023-04-24T11:32:48;13.90;68.90
7844;DHT22;3967;48.702;9.326;2023-04-24T11:37:46;13.80;69.10
7844;DHT22;3967;48.702;9.326;2023-04-24T11:40:35;14.10;69.40
7844;DHT22;3967;48.702;9.326;2023-04-24T11:43:04;14.10;68.80
7844;DHT22;3967;48.702;9.326;2023-04-24T11:45:33;14.00;68.50
7844;DHT22;3967;48.702;9.326;2023-04-24T11:48:00;13.90;69.60
7844;DHT22;3967;48.702;9.326;2023-04-24T11:50:27;14.00;70.10
7844;DHT22;3967;48.702;9.326;2023-04-24T11:52:55;13.80;69.20
7844;DHT22;3967;48.702;9.326;2023-04-24T11:55:24;13.70;69.10
7844;DHT22;3967;48.702;9.326;2023-04-24T11:57:56;13.60;68.60
7844;DHT22;3967;48.702;9.326;2023-04-24T12:00:26;13.60;69.50
7844;DHT22;3967;48.702;9.326;2023-04-24T12:05:32;13.00;70.50
7844;DHT22;3967;48.702;9.326;2023-04-24T12:07:59;13.20;70.90
7844;DHT22;3967;48.702;9.326;2023-04-24T12:10:28;13.30;69.70
7844;DHT22;3967;48.702;9.326;2023-04-24T12:12:56;13.30;70.30
7844;DHT22;3967;48.702;9.326;2023-04-24T12:15:23;13.40;70.30
7844;DHT22;3967;48.702;9.326;2023-04-24T12:17:51;13.50;70.80
7844;DHT22;3967;48.702;9.326;2023-04-24T12:20:24;13.60;71.10
7844;DHT22;3967;48.702;9.326;2023-04-24T12:22:55;13.60;71.00
7844;DHT22;3967;48.702;9.326;2023-04-24T12:25:24;13.70;70.10
7844;DHT22;3967;48.702;9.326;2023-04-24T12:30:32;13.80;69.10
7844;DHT22;3967;48.702;9.326;2023-04-24T12:32:59;13.70;69.50
7844;DHT22;3967;48.702;9.326;2023-04-24T12:35:30;13.70;70.10
7844;DHT22;3967;48.702;9.326;2023-04-24T12:38:08;13.70;70.30
7844;DHT22;3967;48.702;9.326;2023-04-24T12:40:35;13.60;70.20
7844;DHT22;3967;48.702;9.326;2023-04-24T12:43:19;13.60;71.30
7844;DHT22;3967;48.702;9.326;2023-04-24T12:45:47;13.50;71.50
7844;DHT22;3967;48.702;9.326;2023-04-24T12:48:14;13.70;71.80
7844;DHT22;3967;48.702;9.326;2023-04-24T12:50:41;13.90;71.90
7844;DHT22;3967;48.702;9.326;2023-04-24T12:53:11;14.00;71.00
7844;DHT22;3967;48.702;9.326;2023-04-24T12:55:38;13.90;70.00
7844;DHT22;3967;48.702;9.326;2023-04-24T12:58:05;14.10;70.90
7844;DHT22;3967;48.702;9.326;2023-04-24T13:00:32;13.90;70.60
7844;DHT22;3967;48.702;9.326;2023-04-24T13:02:59;13.80;70.40
7844;DHT22;3967;48.702;9.326;2023-04-24T13:05:27;13.70;69.60
7844;DHT22;3967;48.702;9.326;2023-04-24T13:07:54;13.50;69.90
7844;DHT22;3967;48.702;9.326;2023-04-24T13:10:21;13.50;71.00
7844;DHT22;3967;48.702;9.326;2023-04-24T13:12:47;13.40;70.90
7844;DHT22;3967;48.702;9.326;2023-04-24T13:15:14;13.40;70.70
7844;DHT22;3967;48.702;9.326;2023-04-24T13:17:41;13.20;70.50
7844;DHT22;3967;48.702;9.326;2023-04-24T13:20:08;13.30;70.90
7844;DHT22;3967;48.702;9.326;2023-04-24T13:22:36;13.30;71.40
7844;DHT22;3967;48.702;9.326;2023-04-24T13:25:03;13.20;71.80
7844;DHT22;3967;48.702;9.326;2023-04-24T13:27:32;13.20;72.90
7844;DHT22;3967;48.702;9.326;2023-04-24T13:29:59;13.10;72.90
7844;DHT22;3967;48.702;9.326;2023-04-24T13:32:26;13.00;74.20
7844;DHT22;3967;48.702;9.326;2023-04-24T13:34:54;13.20;74.60
7844;DHT22;3967;48.702;9.326;2023-04-24T13:37:20;13.30;75.50
7844;DHT22;3967;48.702;9.326;2023-04-24T13:39:48;13.60;75.00
7844;DHT22;3967;48.702;9.326;2023-04-24T13:42:15;13.80;76.60
7844;DHT22;3967;48.702;9.326;2023-04-24T13:44:42;14.10;75.30
7844;DHT22;3967;48.702;9.326;2023-04-24T13:47:09;14.10;73.20
7844;DHT22;3967;48.702;9.326;2023-04-24T13:49:35;14.20;73.50
7844;DHT22;3967;48.702;9.326;2023-04-24T13:52:02;14.20;71.10
7844;DHT22;3967;48.702;9.326;2023-04-24T13:54:29;14.20;71.30
7844;DHT22;3967;48.702;9.326;2023-04-24T13:56:57;14.00;71.20
7844;DHT22;3967;48.702;9.326;2023-04-24T13:59:25;13.90;71.10
7844;DHT22;3967;48.702;9.326;2023-04-24T14:01:52;13.70;70.80
7844;DHT22;3967;48.702;9.326;2023-04-24T14:04:19;13.50;71.80
7844;DHT22;3967;48.702;9.326;2023-04-24T14:06:46;13.40;71.40
7844;DHT22;3967;48.702;9.326;2023-04-24T14:09:12;13.40;72.20
7844;DHT22;3967;48.702;9.326;2023-04-24T14:11:39;13.30;73.60
7844;DHT22;3967;48.702;9.326;2023-04-24T14:14:07;12.90;77.10
7844;DHT22;3967;48.702;9.326;2023-04-24T14:16:34;13.00;79.80
7844;DHT22;3967;48.702;9.326;2023-04-24T14:19:01;13.20;78.90
7844;DHT22;3967;48.702;9.326;2023-04-24T14:21:28;13.30;77.80
7844;DHT22;3967;48.702;9.326;2023-04-24T14:23:55;13.40;79.10
7844;DHT22;3967;48.702;9.326;2023-04-24T14:26:21;13.40;80.20
7844;DHT22;3967;48.702;9.326;2023-04-24T14:28:48;13.30;82.10
7844;DHT22;3967;48.702;9.326;2023-04-24T14:31:17;13.40;80.00
7844;DHT22;3967;48.702;9.326;2023-04-24T14:33:44;13.50;78.50
7844;DHT22;3967;48.702;9.326;2023-04-24T14:36:12;13.30;79.60
7844;DHT22;3967;48.702;9.326;2023-04-24T14:38:39;13.20;80.00
7844;DHT22;3967;48.702;9.326;2023-04-24T14:41:06;13.30;79.20
7844;DHT22;3967;48.702;9.326;2023-04-24T14:43:39;13.30;78.20
7844;DHT22;3967;48.702;9.326;2023-04-24T14:46:07;12.90;78.70
7844;DHT22;3967;48.702;9.326;2023-04-24T14:48:33;12.60;81.50
7844;DHT22;3967;48.702;9.326;2023-04-24T14:51:00;12.50;89.60
7844;DHT22;3967;48.702;9.326;2023-04-24T14:53:27;12.30;91.70
7844;DHT22;3967;48.702;9.326;2023-04-24T14:55:54;12.20;91.70
7844;DHT22;3967;48.702;9.326;2023-04-24T14:58:21;12.50;92.40
7844;DHT22;3967;48.702;9.326;2023-04-24T15:00:48;12.70;91.00
7844;DHT22;3967;48.702;9.326;2023-04-24T15:03:18;13.00;90.10
7844;DHT22;3967;48.702;9.326;2023-04-24T15:05:46;13.10;89.60
7844;DHT22;3967;48.702;9.326;2023-04-24T15:08:13;13.20;88.10
7844;DHT22;3967;48.702;9.326;2023-04-24T15:10:39;13.40;88.60
7844;DHT22;3967;48.702;9.326;2023-04-24T15:13:06;13.50;84.70
7844;DHT22;3967;48.702;9.326;2023-04-24T15:15:33;13.70;85.30
7844;DHT22;3967;48.702;9.326;2023-04-24T15:18:00;13.80;83.90
7844;DHT22;3967;48.702;9.326;2023-04-24T15:20:27;13.90;82.10
7844;DHT22;3967;48.702;9.326;2023-04-24T15:22:54;14.00;82.80
7844;DHT22;3967;48.702;9.326;2023-04-24T15:25:21;13.90;81.30
7844;DHT22;3967;48.702;9.326;2023-04-24T15:27:47;14.00;80.70
7844;DHT22;3967;48.702;9.326;2023-04-24T15:30:14;13.90;79.40
7844;DHT22;3967;48.702;9.326;2023-04-24T15:32:41;13.70;77.40
7844;DHT22;3967;48.702;9.326;2023-04-24T15:35:08;13.80;78.00
7844;DHT22;3967;48.702;9.326;2023-04-24T15:37:37;13.80;76.90
7844;DHT22;3967;48.702;9.326;2023-04-24T15:40:05;13.80;74.70
7844;DHT22;3967;48.702;9.326;2023-04-24T15:42:34;13.70;72.70
7844;DHT22;3967;48.702;9.326;2023-04-24T15:45:01;13.60;72.90
7844;DHT22;3967;48.702;9.326;2023-04-24T15:47:28;13.60;72.60
7844;DHT22;3967;48.702;9.326;2023-04-24T15:49:54;13.50;72.40
7844;DHT22;3967;48.702;9.326;2023-04-24T15:52:21;13.60;72.50
7844;DHT22;3967;48.702;9.326;2023-04-24T15:54:48;13.30;72.30
7844;DHT22;3967;48.702;9.326;2023-04-24T15:57:15;13.20;72.60
7844;DHT22;3967;48.702;9.326;2023-04-24T15:59:42;13.10;74.40
7844;DHT22;3967;48.702;9.326;2023-04-24T16:02:11;13.10;77.30
7844;DHT22;3967;48.702;9.326;2023-04-24T16:04:45;12.80;82.60
7844;DHT22;3967;48.702;9.326;2023-04-24T16:07:13;12.50;84.20
7844;DHT22;3967;48.702;9.326;2023-04-24T16:09:40;12.80;86.70
7844;DHT22;3967;48.702;9.326;2023-04-24T16:12:08;13.00;84.50
7844;DHT22;3967;48.702;9.326;2023-04-24T16:14:36;13.20;83.30
7844;DHT22;3967;48.702;9.326;2023-04-24T16:17:03;13.40;82.90
7844;DHT22;3967;48.702;9.326;2023-04-24T16:19:30;13.20;81.70
7844;DHT22;3967;48.702;9.326;2023-04-24T16:21:59;13.40;82.10
7844;DHT22;3967;48.702;9.326;2023-04-24T16:24:27;13.30;79.40